עמוד ראשי
METAR-TAF:

METAR-TAF

שדות תעופה :

Juigalpa, ניקרגואה

קו רוחב: 12-06N, קו אורך: 085-22W, גובה: 90מטר

תצפית מזג אוויר נוכחית

הדו"ח נערך לפני 8 שעות ו 16דקות, בשעה 23:00 UTC
רוח רגועה
טמפרטורת 36 צלסיוס
לחות 39%
לחץ 1007 hPa
ראות 10 קילומטר או יותר
מעט עננים בגובה 2000רגל

METAR: MNJU 192300Z 00000KT 9999 FEW020 36/20 Q1007

זמן: 01:16 (07:16 UTC)


TAF: חסר

תצפיות ותחזיות מזג אוויר לגבי יותר מ- 4,000 שדות תעופה ברחבי העולם. דוחות METAR ו- TAF.

התחנות הזמינות מסומנות בנקודות צהובות ואדומות על גבי המפה.

העבר את העכבר לנקודה הצבעונית על מנת לראות את שם התחנה.

לאחר מכן, לחץ כדי לראות את תוכן ואת תחזיות מזג האוויר.

כדי לשנות את המפה: לחץ על הכפתורים הירוקים עם הפלוס השחור כדי להתקרב; על הכפתור הירוק עם המקף כדי להתרחק; או בחיצים הירוקים למפות סמוכות.


METAR-TAF: